createdAt,value
2015-03-20T20:17:33.798Z,30
2015-03-20T20:17:47.298Z,29
2015-03-20T20:18:00.767Z,30
2015-03-20T20:18:14.142Z,30
2015-03-20T20:18:27.611Z,31
2015-03-20T20:18:41.083Z,32
2015-03-20T20:18:54.442Z,33
2015-03-20T20:19:07.864Z,34
2015-03-20T20:19:21.348Z,35
2015-03-20T20:19:34.756Z,35
2015-03-20T20:19:48.116Z,34
2015-03-20T20:20:01.600Z,34
2015-03-20T20:20:15.475Z,34
2015-03-20T20:20:28.991Z,34
2015-03-20T20:20:42.337Z,34
2015-03-20T20:20:55.758Z,35
2015-03-20T20:21:09.305Z,35
2015-03-20T20:21:22.743Z,35
2015-03-20T20:21:36.182Z,35
2015-03-20T20:21:49.714Z,35
2015-03-20T20:22:03.167Z,35
2015-03-20T20:22:16.542Z,35
2015-03-20T20:22:30.042Z,36
2015-03-20T20:22:43.498Z,36
2015-03-20T20:22:57.013Z,36
2015-03-20T20:23:10.467Z,36
2015-03-20T20:23:23.873Z,36
2015-03-20T20:23:37.422Z,36
2015-03-20T20:23:50.812Z,36
2015-03-20T20:24:04.172Z,36
2015-03-20T20:24:17.640Z,36
2015-03-20T20:24:31.094Z,36
2015-03-20T20:24:44.439Z,36
2015-03-20T20:24:57.939Z,36
2015-03-20T20:25:11.392Z,36
2015-03-20T20:25:24.799Z,36
2015-03-20T20:25:38.239Z,36
2015-03-20T20:25:51.645Z,36
2015-03-20T20:26:05.333Z,36
2015-03-20T20:26:18.817Z,36
2015-03-20T20:26:32.208Z,36
2015-03-20T20:26:46.038Z,36
2015-03-20T20:26:59.929Z,36
2015-03-20T20:27:13.288Z,36
2015-03-20T20:27:26.819Z,36
2015-03-20T20:27:40.399Z,36
2015-03-20T20:27:53.806Z,36
2015-03-20T20:28:07.915Z,36
2015-03-20T20:28:21.728Z,36
2015-03-20T20:28:41.684Z,36
2015-03-20T20:28:55.137Z,36
2015-03-20T20:29:15.887Z,36
2015-03-20T20:29:29.324Z,36
2015-03-20T20:29:42.984Z,36
2015-03-20T20:29:56.671Z,36
2015-03-20T20:30:10.405Z,36
2015-03-20T20:30:24.343Z,37
2015-03-20T20:30:38.546Z,36
2015-03-20T20:30:53.923Z,36
2015-03-20T20:31:07.689Z,36
2015-03-20T20:31:21.157Z,37
2015-03-20T20:31:34.845Z,37
2015-03-20T20:31:48.597Z,36
2015-03-20T20:32:02.128Z,36
2015-03-20T20:32:16.113Z,36
2015-03-20T20:32:29.691Z,36
2015-03-20T20:32:43.208Z,36
2015-03-20T20:32:56.927Z,37
2015-03-20T20:33:10.568Z,36
2015-03-20T20:33:24.130Z,36
2015-03-20T20:33:37.786Z,36
2015-03-20T20:33:51.539Z,36
2015-03-20T20:34:06.399Z,36
2015-03-20T20:34:19.977Z,36
2015-03-20T20:34:33.430Z,36
2015-03-20T20:34:47.229Z,36
2015-03-20T20:35:00.791Z,36
2015-03-20T20:35:14.338Z,36
2015-03-20T20:35:27.729Z,36
2015-03-20T20:35:41.182Z,36
2015-03-20T20:35:54.778Z,36
2015-03-20T20:36:08.153Z,36
2015-03-20T20:36:21.653Z,36
2015-03-20T20:36:35.137Z,36
2015-03-20T20:36:48.561Z,36
2015-03-20T20:37:01.999Z,36
2015-03-20T20:37:15.577Z,36
2015-03-20T20:37:29.045Z,36
2015-03-20T20:37:42.514Z,36
2015-03-20T20:37:55.908Z,36
2015-03-20T20:38:09.345Z,36
2015-03-20T20:38:23.439Z,36
2015-03-20T20:38:36.892Z,37
2015-03-20T20:38:50.363Z,36
2015-03-20T20:39:03.832Z,36
2015-03-20T20:39:17.316Z,36
2015-03-20T20:39:30.707Z,36
2015-03-20T20:39:44.269Z,36
2015-03-20T20:39:57.740Z,36
2015-03-20T20:40:11.177Z,36
2015-03-20T20:40:24.646Z,37
2015-03-20T20:40:38.037Z,36
2015-03-20T20:40:51.540Z,36
2015-03-20T20:41:05.118Z,36
2015-03-20T20:41:18.524Z,36
2015-03-20T20:41:32.305Z,36
2015-03-20T20:41:45.792Z,36
2015-03-20T20:41:59.151Z,36
2015-03-20T20:42:12.651Z,36
2015-03-20T20:42:26.464Z,36
2015-03-20T20:42:39.917Z,36
2015-03-20T20:42:53.372Z,36
2015-03-20T20:43:06.856Z,36
2015-03-20T20:43:20.294Z,36
2015-03-20T20:43:33.778Z,36
2015-03-20T20:43:47.172Z,36
2015-03-20T20:44:00.687Z,36
2015-03-20T20:44:14.219Z,36
2015-03-20T20:44:27.609Z,36
2015-03-20T20:44:41.016Z,36
2015-03-20T20:44:54.564Z,36
2015-03-20T20:45:07.971Z,36
2015-03-20T20:45:21.377Z,36
2015-03-20T20:45:34.908Z,36
2015-03-20T20:45:48.363Z,36
2015-03-20T20:46:01.738Z,36
2015-03-20T20:46:15.254Z,36
2015-03-20T20:46:28.660Z,36
2015-03-20T20:46:42.176Z,36
2015-03-20T20:46:55.585Z,36
2015-03-20T20:47:08.991Z,36
2015-03-20T20:47:22.507Z,36
2015-03-20T20:47:36.023Z,37
2015-03-20T20:47:49.446Z,37
2015-03-20T20:48:02.962Z,37
2015-03-20T20:48:16.478Z,37
2015-03-20T20:48:29.868Z,37
2015-03-20T20:48:44.040Z,37
2015-03-20T20:48:57.589Z,37
2015-03-20T20:49:11.027Z,37
2015-03-20T20:49:24.464Z,37
2015-03-20T20:49:37.933Z,37
2015-03-20T20:49:51.436Z,36
2015-03-20T20:50:04.905Z,37
2015-03-20T20:50:18.233Z,37
2015-03-20T20:50:31.701Z,37
2015-03-20T20:50:45.155Z,37
2015-03-20T20:50:58.516Z,36
2015-03-20T20:51:11.953Z,36
2015-03-20T20:51:25.469Z,36
2015-03-20T20:51:38.907Z,36
2015-03-20T20:51:52.394Z,36
2015-03-20T20:52:05.831Z,36
2015-03-20T20:52:19.300Z,36
2015-03-20T20:52:32.785Z,37
2015-03-20T20:52:46.144Z,36
2015-03-20T20:52:59.615Z,36
2015-03-20T20:53:13.162Z,36
2015-03-20T20:53:26.537Z,36
2015-03-20T20:53:39.958Z,36
2015-03-20T20:53:53.445Z,36
2015-03-20T20:54:06.820Z,36
2015-03-20T20:54:20.195Z,36
2015-03-20T20:54:33.695Z,36
2015-03-20T20:54:47.195Z,36
2015-03-20T20:55:00.666Z,36
2015-03-20T20:55:14.056Z,36
2015-03-20T20:55:27.478Z,36
2015-03-20T20:55:41.041Z,36
2015-03-20T20:55:54.481Z,37
2015-03-20T20:56:07.919Z,37
2015-03-20T20:56:21.544Z,37
2015-03-20T20:56:35.028Z,37
2015-03-20T20:56:48.747Z,37
2015-03-20T20:57:02.264Z,37
2015-03-20T20:57:15.717Z,37
2015-03-20T20:57:29.092Z,36
2015-03-20T20:57:42.608Z,36
2015-03-20T20:57:56.126Z,37
2015-03-20T20:58:09.626Z,37
2015-03-20T20:58:23.079Z,37
2015-03-20T20:58:36.563Z,37
2015-03-20T20:58:49.938Z,36
2015-03-20T20:59:03.332Z,36
2015-03-20T20:59:16.832Z,36
2015-03-20T20:59:30.222Z,37
2015-03-20T20:59:43.644Z,36
2015-03-20T20:59:57.131Z,37
2015-03-20T21:00:10.568Z,37
2015-03-20T21:00:23.896Z,37
2015-03-20T21:00:37.334Z,37
2015-03-20T21:00:50.740Z,36
2015-03-20T21:01:04.211Z,37
2015-03-20T21:01:17.617Z,37
2015-03-20T21:01:31.008Z,37
2015-03-20T21:01:44.476Z,37
2015-03-20T21:01:57.870Z,37
2015-03-20T21:02:11.214Z,37
2015-03-20T21:02:24.683Z,37
2015-03-20T21:02:38.276Z,37
2015-03-20T21:02:51.698Z,37
2015-03-20T21:03:05.247Z,37
2015-03-20T21:03:18.731Z,37
2015-03-20T21:03:32.169Z,37
2015-03-20T21:03:45.606Z,37
2015-03-20T21:03:59.030Z,37
2015-03-20T21:04:12.608Z,37
2015-03-20T21:04:26.093Z,37
2015-03-20T21:04:39.452Z,37
2015-03-20T21:04:52.937Z,37
2015-03-20T21:05:06.439Z,37
2015-03-20T21:05:19.829Z,37
2015-03-20T21:05:33.298Z,37
2015-03-20T21:05:46.845Z,37
2015-03-20T21:06:01.098Z,37
2015-03-20T21:06:17.551Z,37
2015-03-20T21:06:31.082Z,37
2015-03-20T21:06:45.082Z,37
2015-03-20T21:07:00.772Z,37
2015-03-20T21:07:14.162Z,37
2015-03-20T21:07:27.647Z,37
2015-03-20T21:07:41.162Z,37
2015-03-20T21:07:54.569Z,37
2015-03-20T21:08:08.009Z,37
2015-03-20T21:08:21.759Z,37
2015-03-20T21:08:35.322Z,37
2015-03-20T21:08:48.697Z,37
2015-03-20T21:09:02.183Z,37
2015-03-20T21:09:15.620Z,37
2015-03-20T21:09:29.074Z,37
2015-03-20T21:09:42.433Z,37
2015-03-20T21:09:55.839Z,37
2015-03-20T21:10:09.388Z,37
2015-03-20T21:10:22.747Z,37
2015-03-20T21:10:36.122Z,37
2015-03-20T21:10:49.622Z,37
2015-03-20T21:11:03.032Z,37
2015-03-20T21:11:16.438Z,37
2015-03-20T21:11:29.907Z,37
2015-03-20T21:11:43.344Z,37
2015-03-20T21:11:56.688Z,37
2015-03-20T21:12:10.159Z,37
2015-03-20T21:12:23.534Z,37
2015-03-20T21:12:37.049Z,37
2015-03-20T21:12:50.456Z,37
2015-03-20T21:13:03.786Z,37
2015-03-20T21:13:17.254Z,36
2015-03-20T21:13:30.739Z,36
2015-03-20T21:13:44.083Z,36
2015-03-20T21:13:57.536Z,36
2015-03-20T21:14:11.007Z,36
2015-03-20T21:14:24.351Z,36
2015-03-20T21:14:37.789Z,36
2015-03-20T21:14:51.398Z,36
2015-03-20T21:15:04.791Z,36
2015-03-20T21:15:18.244Z,36
2015-03-20T21:15:31.619Z,36
2015-03-20T21:15:45.103Z,36
2015-03-20T21:15:58.588Z,36
2015-03-20T21:16:11.996Z,36
2015-03-20T21:16:25.449Z,36
2015-03-20T21:16:38.949Z,36
2015-03-20T21:16:52.324Z,36
2015-03-20T21:17:05.733Z,36
2015-03-20T21:17:19.233Z,36
2015-03-20T21:17:32.608Z,36
2015-03-20T21:17:45.999Z,36
2015-03-20T21:17:59.421Z,36
2015-03-20T21:18:12.876Z,36
2015-03-20T21:18:26.360Z,36
2015-03-20T21:18:39.704Z,36
2015-03-20T21:18:53.110Z,36
2015-03-20T21:19:06.581Z,36
2015-03-20T21:19:19.956Z,36
2015-03-20T21:19:33.315Z,36
2015-03-20T21:19:46.800Z,36
2015-03-20T21:20:00.222Z,36
2015-03-20T21:20:13.552Z,36
2015-03-20T21:20:27.020Z,36
2015-03-20T21:20:40.442Z,36
2015-03-20T21:20:53.770Z,36
2015-03-20T21:21:07.211Z,36
2015-03-20T21:21:20.648Z,36
2015-03-20T21:21:34.008Z,36
2015-03-20T21:21:47.414Z,36
2015-03-20T21:22:00.898Z,36
2015-03-20T21:22:14.244Z,36
2015-03-20T21:22:27.666Z,36
2015-03-20T21:22:41.182Z,36
2015-03-20T21:22:54.541Z,36
2015-03-20T21:23:07.918Z,36
2015-03-20T21:23:21.387Z,36
2015-03-20T21:23:34.793Z,36
2015-03-20T21:23:48.262Z,36
2015-03-20T21:24:01.621Z,36
2015-03-20T21:24:15.076Z,36
2015-03-20T21:24:28.545Z,36
2015-03-20T21:24:41.920Z,36
2015-03-20T21:24:55.342Z,36
2015-03-20T21:25:08.845Z,36
2015-03-20T21:25:22.282Z,36
2015-03-20T21:25:35.673Z,36
2015-03-20T21:25:49.189Z,36
2015-03-20T21:26:02.626Z,36
2015-03-20T21:26:16.004Z,36
2015-03-20T21:26:29.504Z,36
2015-03-20T21:26:42.910Z,36
2015-03-20T21:26:56.692Z,36
2015-03-20T21:27:10.146Z,36
2015-03-20T21:27:23.490Z,36
2015-03-20T21:27:36.990Z,36
2015-03-20T21:27:50.411Z,36
2015-03-20T21:28:03.755Z,36
2015-03-20T21:28:17.243Z,36
2015-03-20T21:28:30.711Z,36
2015-03-20T21:28:44.055Z,36
2015-03-20T21:28:57.493Z,36
2015-03-20T21:29:11.027Z,36
2015-03-20T21:29:24.417Z,36
2015-03-20T21:29:37.839Z,36
2015-03-20T21:29:51.199Z,36
2015-03-20T21:30:04.652Z,36
2015-03-20T21:30:18.137Z,36
2015-03-20T21:30:31.497Z,36
2015-03-20T21:30:44.903Z,36
2015-03-20T21:30:58.450Z,36
2015-03-20T21:31:11.796Z,36
2015-03-20T21:31:25.203Z,36
2015-03-20T21:31:38.718Z,36
2015-03-20T21:31:52.125Z,36
2015-03-20T21:32:05.500Z,36
2015-03-20T21:32:18.909Z,36
2015-03-20T21:32:32.331Z,36
2015-03-20T21:32:45.831Z,36
2015-03-20T21:32:59.174Z,36
2015-03-20T21:33:12.645Z,36
2015-03-20T21:33:26.130Z,36
2015-03-20T21:33:39.520Z,36
2015-03-20T21:33:52.911Z,36
2015-03-20T21:34:06.411Z,36
2015-03-20T21:34:19.850Z,36
2015-03-20T21:34:33.225Z,36
2015-03-20T21:34:46.772Z,36
2015-03-20T21:35:00.241Z,36
2015-03-20T21:35:13.727Z,36
2015-03-20T21:35:27.165Z,36
2015-03-20T21:35:40.555Z,36
2015-03-20T21:35:54.071Z,36
2015-03-20T21:36:07.493Z,36
2015-03-20T21:36:20.871Z,36
2015-03-20T21:36:34.387Z,36
2015-03-20T21:36:47.840Z,36
2015-03-20T21:37:01.246Z,36
2015-03-20T21:37:14.701Z,36
2015-03-20T21:37:28.139Z,36
2015-03-20T21:37:41.482Z,36
2015-03-20T21:37:54.920Z,36
2015-03-20T21:38:08.310Z,36
2015-03-20T21:38:22.109Z,36
2015-03-20T21:38:35.734Z,36
2015-03-20T21:38:49.078Z,36
2015-03-20T21:39:02.531Z,36
2015-03-20T21:39:16.034Z,36
2015-03-20T21:39:29.378Z,36
2015-03-20T21:39:42.800Z,36
2015-03-20T21:39:56.300Z,36
2015-03-20T21:40:09.675Z,36
2015-03-20T21:40:23.099Z,36
2015-03-20T21:40:36.567Z,36
2015-03-20T21:40:49.927Z,36
2015-03-20T21:41:03.380Z,36
2015-03-20T21:41:16.788Z,35
2015-03-20T21:41:30.194Z,36
2015-03-20T21:41:43.663Z,36
2015-03-20T21:41:57.023Z,36
2015-03-20T21:42:10.444Z,36
2015-03-20T21:42:23.885Z,36
2015-03-20T21:42:37.260Z,36
2015-03-20T21:42:50.619Z,36
2015-03-20T21:43:04.088Z,36
2015-03-20T21:43:17.496Z,36
2015-03-20T21:43:30.824Z,36
2015-03-20T21:43:44.340Z,36
2015-03-20T21:43:57.778Z,36
2015-03-20T21:44:11.168Z,36
2015-03-20T21:44:24.686Z,36
2015-03-20T21:44:38.186Z,36
2015-03-20T21:44:51.655Z,36
2015-03-20T21:45:05.092Z,36
2015-03-20T21:45:18.626Z,35
2015-03-20T21:45:31.986Z,36
2015-03-20T21:45:45.408Z,36
2015-03-20T21:45:58.970Z,36
2015-03-20T21:46:12.376Z,36
2015-03-20T21:46:25.785Z,35
2015-03-20T21:46:39.222Z,35
2015-03-20T21:46:52.691Z,36
2015-03-20T21:47:06.175Z,36
2015-03-20T21:47:19.552Z,35
2015-03-20T21:47:32.943Z,35
2015-03-20T21:47:46.427Z,36
2015-03-20T21:47:59.833Z,36
2015-03-20T21:48:13.208Z,36
2015-03-20T21:48:26.680Z,36
2015-03-20T21:48:40.086Z,36
2015-03-20T21:48:53.446Z,35
2015-03-20T21:49:06.946Z,36
2015-03-20T21:49:20.385Z,36
2015-03-20T21:49:33.823Z,36
2015-03-20T21:49:47.213Z,35
2015-03-20T21:50:00.573Z,36
2015-03-20T21:50:14.104Z,36
2015-03-20T21:50:27.512Z,35
2015-03-20T21:50:40.872Z,36
2015-03-20T21:50:54.356Z,36
2015-03-20T21:51:07.809Z,36
2015-03-20T21:51:21.156Z,35
2015-03-20T21:51:34.625Z,36
2015-03-20T21:51:48.093Z,36
2015-03-20T21:52:01.453Z,35
2015-03-20T21:52:14.859Z,36
2015-03-20T21:52:28.219Z,35
2015-03-20T21:52:41.688Z,36
2015-03-20T21:52:55.110Z,36
2015-03-20T21:53:08.516Z,35
2015-03-20T21:53:21.972Z,36
2015-03-20T21:53:35.441Z,35
2015-03-20T21:53:48.785Z,36
2015-03-20T21:54:02.254Z,36
2015-03-20T21:54:15.785Z,36
2015-03-20T21:54:29.162Z,36
2015-03-20T21:54:42.615Z,36
2015-03-20T21:54:56.115Z,35
2015-03-20T21:55:09.537Z,35
2015-03-20T21:55:23.040Z,36
2015-03-20T21:55:36.431Z,36
2015-03-20T21:55:49.915Z,36
2015-03-20T21:56:03.462Z,35
2015-03-20T21:56:16.821Z,35
2015-03-20T21:56:30.245Z,35
2015-03-20T21:56:43.761Z,36
2015-03-20T21:56:57.495Z,36
2015-03-20T21:57:10.854Z,36
2015-03-20T21:57:24.341Z,36
2015-03-20T21:57:37.747Z,35
2015-03-20T21:57:51.091Z,35
2015-03-20T21:58:04.528Z,35
2015-03-20T21:58:17.950Z,35
2015-03-20T21:58:31.422Z,36
2015-03-20T21:58:44.781Z,35
2015-03-20T21:58:58.141Z,35
2015-03-20T21:59:11.656Z,36
2015-03-20T21:59:25.080Z,36
2015-03-20T21:59:38.408Z,35
2015-03-20T21:59:51.955Z,35
2015-03-20T22:00:05.361Z,35
2015-03-20T22:00:18.705Z,35
2015-03-20T22:00:32.161Z,36
2015-03-20T22:00:45.630Z,36
2015-03-20T22:00:59.036Z,36
2015-03-20T22:01:12.427Z,35
2015-03-20T22:01:25.772Z,36
2015-03-20T22:01:39.256Z,35
2015-03-20T22:01:52.694Z,36
2015-03-20T22:02:06.053Z,36
2015-03-20T22:02:19.490Z,35
2015-03-20T22:02:32.962Z,36
2015-03-20T22:02:46.275Z,36
2015-03-20T22:02:59.697Z,36
2015-03-20T22:03:13.181Z,35
2015-03-20T22:03:26.542Z,35
2015-03-20T22:03:39.964Z,36
2015-03-20T22:03:53.355Z,36
2015-03-20T22:04:06.839Z,35
2015-03-20T22:04:20.277Z,36
2015-03-20T22:04:33.655Z,36
2015-03-20T22:04:47.108Z,36
2015-03-20T22:05:00.623Z,35
2015-03-20T22:05:14.014Z,36
2015-03-20T22:05:27.454Z,36
2015-03-20T22:05:40.985Z,36
2015-03-20T22:05:54.391Z,36
2015-03-20T22:06:07.813Z,36
2015-03-20T22:06:21.344Z,35
2015-03-20T22:06:34.799Z,35
2015-03-20T22:06:48.143Z,35
2015-03-20T22:07:01.643Z,36
2015-03-20T22:07:15.065Z,36
2015-03-20T22:07:28.411Z,35
2015-03-20T22:07:41.864Z,35
2015-03-20T22:07:55.317Z,35
2015-03-20T22:08:08.676Z,35
2015-03-20T22:08:23.411Z,36
2015-03-20T22:08:37.086Z,36
2015-03-20T22:08:50.414Z,36
2015-03-20T22:09:03.820Z,36
2015-03-20T22:09:17.289Z,35
2015-03-20T22:09:30.697Z,35
2015-03-20T22:09:44.119Z,35
2015-03-20T22:09:57.463Z,35
2015-03-20T22:10:10.884Z,35
2015-03-20T22:10:24.353Z,35
2015-03-20T22:10:37.699Z,35
2015-03-20T22:10:51.105Z,35
2015-03-20T22:11:04.590Z,35
2015-03-20T22:11:17.965Z,35
2015-03-20T22:11:31.358Z,35
2015-03-20T22:11:44.889Z,35
2015-03-20T22:11:58.264Z,36
2015-03-20T22:12:11.608Z,36
2015-03-20T22:12:25.061Z,36
2015-03-20T22:12:38.470Z,36
2015-03-20T22:12:51.970Z,36
2015-03-20T22:13:05.454Z,36
2015-03-20T22:13:18.891Z,36
2015-03-20T22:13:32.394Z,36
2015-03-20T22:13:45.816Z,36
2015-03-20T22:13:59.191Z,36
2015-03-20T22:14:12.676Z,36
2015-03-20T22:14:26.160Z,36
2015-03-20T22:14:39.553Z,36
2015-03-20T22:14:53.037Z,36
2015-03-20T22:15:06.584Z,36
2015-03-20T22:15:20.631Z,35
2015-03-20T22:15:34.070Z,35
2015-03-20T22:15:47.461Z,36
2015-03-20T22:16:01.023Z,36
2015-03-20T22:16:14.508Z,36
2015-03-20T22:16:27.898Z,36
2015-03-20T22:16:41.354Z,35
2015-03-20T22:16:54.838Z,35
2015-03-20T22:17:08.197Z,35
2015-03-20T22:17:21.619Z,35
2015-03-20T22:17:35.106Z,36
2015-03-20T22:17:48.481Z,35
2015-03-20T22:18:01.887Z,35
2015-03-20T22:18:15.293Z,35
2015-03-20T22:18:28.762Z,36
2015-03-20T22:18:42.234Z,36
2015-03-20T22:18:55.577Z,36
2015-03-20T22:19:08.999Z,36
2015-03-20T22:19:22.515Z,36
2015-03-20T22:19:35.861Z,36
2015-03-20T22:19:49.298Z,36
2015-03-20T22:20:02.798Z,36
2015-03-20T22:20:16.189Z,36
2015-03-20T22:20:29.611Z,36
2015-03-20T22:20:43.113Z,36
2015-03-20T22:20:56.534Z,36
2015-03-20T22:21:10.003Z,36
2015-03-20T22:21:23.425Z,36
2015-03-20T22:21:36.834Z,36
2015-03-20T22:21:50.303Z,36
2015-03-20T22:22:03.709Z,36
2015-03-20T22:22:17.100Z,36
2015-03-20T22:22:30.600Z,36
2015-03-20T22:22:43.994Z,36
2015-03-20T22:22:57.384Z,36
2015-03-20T22:23:10.931Z,36
2015-03-20T22:23:24.384Z,36
2015-03-20T22:23:37.777Z,36
2015-03-20T22:23:51.292Z,36
2015-03-20T22:24:04.699Z,36
2015-03-20T22:24:18.230Z,36
2015-03-20T22:24:31.683Z,36
2015-03-20T22:24:45.091Z,36
2015-03-20T22:24:58.607Z,36
2015-03-20T22:25:12.107Z,36
2015-03-20T22:25:25.498Z,36
2015-03-20T22:25:39.023Z,36
2015-03-20T22:25:52.539Z,36
2015-03-20T22:26:05.914Z,36
2015-03-20T22:26:19.367Z,36
2015-03-20T22:26:32.867Z,36
2015-03-20T22:26:47.255Z,36
2015-03-20T22:27:00.724Z,36
2015-03-20T22:27:14.099Z,36
2015-03-20T22:27:27.552Z,36
2015-03-20T22:27:41.017Z,36
2015-03-20T22:27:54.376Z,36
2015-03-20T22:28:07.798Z,36
2015-03-20T22:28:21.251Z,36
2015-03-20T22:28:34.608Z,36
2015-03-20T22:28:47.999Z,36
2015-03-20T22:29:01.467Z,36
2015-03-20T22:29:14.905Z,36
2015-03-20T22:29:28.327Z,36
2015-03-20T22:29:41.809Z,36
2015-03-20T22:29:55.230Z,36
2015-03-20T22:30:08.590Z,36
2015-03-20T22:30:22.137Z,36
2015-03-20T22:30:35.597Z,36
2015-03-20T22:30:48.941Z,36
2015-03-20T22:31:02.456Z,36
2015-03-20T22:31:15.925Z,36
2015-03-20T22:31:29.269Z,36
2015-03-20T22:31:42.712Z,36
2015-03-20T22:31:56.165Z,36
2015-03-20T22:32:09.509Z,36
2015-03-20T22:32:22.915Z,36
2015-03-20T22:32:36.329Z,36
2015-03-20T22:32:49.782Z,36
2015-03-20T22:33:03.250Z,36
2015-03-20T22:33:16.625Z,36
2015-03-20T22:33:30.032Z,36
2015-03-20T22:33:43.553Z,36
2015-03-20T22:33:56.960Z,36
2015-03-20T22:34:10.413Z,36
2015-03-20T22:34:23.960Z,36
2015-03-20T22:34:37.387Z,36
2015-03-20T22:34:50.872Z,36
2015-03-20T22:35:04.372Z,36
2015-03-20T22:35:17.809Z,36
2015-03-20T22:35:31.262Z,36
2015-03-20T22:35:44.641Z,36
2015-03-20T22:35:58.110Z,36
2015-03-20T22:36:11.610Z,36
2015-03-20T22:36:24.985Z,36
2015-03-20T22:36:38.441Z,36
2015-03-20T22:36:51.957Z,36
2015-03-20T22:37:05.363Z,36
2015-03-20T22:37:18.723Z,36
2015-03-20T22:37:32.223Z,36
2015-03-20T22:37:45.649Z,36
2015-03-20T22:38:05.524Z,36
2015-03-20T22:38:24.274Z,36
2015-03-20T22:38:37.712Z,36
2015-03-20T22:38:51.215Z,36
2015-03-20T22:39:04.668Z,37
2015-03-20T22:39:18.090Z,37
2015-03-20T22:39:41.765Z,37
2015-03-20T22:39:55.249Z,37
2015-03-20T22:40:08.609Z,37
2015-03-20T22:40:23.515Z,37
2015-03-20T22:40:37.312Z,37
2015-03-20T22:40:50.815Z,37
2015-03-20T22:41:04.237Z,37
2015-03-20T22:41:17.705Z,37
2015-03-20T22:41:31.690Z,37
2015-03-20T22:41:45.318Z,37
2015-03-20T22:41:58.990Z,37
2015-03-20T22:42:12.411Z,37
2015-03-20T22:42:25.880Z,37
2015-03-20T22:42:39.271Z,37
2015-03-20T22:42:52.726Z,37
2015-03-20T22:43:06.351Z,37
2015-03-20T22:43:19.710Z,37
2015-03-20T22:43:33.148Z,37
2015-03-20T22:43:46.808Z,37
2015-03-20T22:44:00.261Z,37
2015-03-20T22:44:13.714Z,37
2015-03-20T22:44:27.230Z,37
2015-03-20T22:44:40.714Z,37
2015-03-20T22:44:54.169Z,38
2015-03-20T22:45:07.544Z,37
2015-03-20T22:45:20.919Z,37
2015-03-20T22:45:34.419Z,37
2015-03-20T22:45:47.796Z,37
2015-03-20T22:46:01.312Z,37
2015-03-20T22:46:14.796Z,37
2015-03-20T22:46:28.187Z,37
2015-03-20T22:46:41.625Z,37
2015-03-20T22:46:55.128Z,38
2015-03-20T22:47:08.549Z,38
2015-03-20T22:47:22.003Z,38
2015-03-20T22:47:35.362Z,38
2015-03-20T22:47:48.724Z,37
2015-03-20T22:48:02.287Z,37
2015-03-20T22:48:15.677Z,37
2015-03-20T22:48:29.037Z,37
2015-03-20T22:48:42.521Z,38
2015-03-20T22:48:55.977Z,38
2015-03-20T22:49:09.352Z,38
2015-03-20T22:49:22.821Z,37
2015-03-20T22:49:36.384Z,38
2015-03-20T22:49:49.745Z,38
2015-03-20T22:50:03.276Z,38
2015-03-20T22:50:16.698Z,38
2015-03-20T22:50:30.198Z,38
2015-03-20T22:50:43.620Z,37
2015-03-20T22:50:56.967Z,37
2015-03-20T22:51:12.029Z,38
2015-03-20T22:51:25.529Z,38
2015-03-20T22:51:38.935Z,38
2015-03-20T22:51:52.454Z,37
2015-03-20T22:52:06.048Z,37
2015-03-20T22:52:19.454Z,37
2015-03-20T22:52:32.907Z,38
2015-03-20T22:52:46.408Z,38
2015-03-20T22:52:59.830Z,38
2015-03-20T22:53:13.330Z,38
2015-03-20T22:53:26.861Z,38
2015-03-20T22:53:40.314Z,39
2015-03-20T22:53:53.724Z,38
2015-03-20T22:54:07.239Z,38
2015-03-20T22:54:20.661Z,38
2015-03-20T22:54:33.989Z,38
2015-03-20T22:54:47.460Z,38
2015-03-20T22:55:01.023Z,38
2015-03-20T22:55:14.382Z,38
2015-03-20T22:55:27.804Z,38
2015-03-20T22:55:41.288Z,38
2015-03-20T22:55:54.697Z,38
2015-03-20T22:56:08.119Z,38
2015-03-20T22:56:21.463Z,38
2015-03-20T22:56:34.901Z,38
2015-03-20T22:56:54.903Z,38
2015-03-20T22:57:08.340Z,38
2015-03-20T22:57:21.809Z,38
2015-03-20T22:57:35.278Z,38
2015-03-20T22:57:48.606Z,38
2015-03-20T22:58:01.998Z,38
2015-03-20T22:58:15.451Z,38
2015-03-20T22:58:28.826Z,38
2015-03-20T22:58:42.201Z,38
2015-03-20T22:58:55.611Z,38
2015-03-20T22:59:09.079Z,38
2015-03-20T22:59:22.579Z,38
2015-03-20T22:59:36.642Z,38
2015-03-20T22:59:50.017Z,38
2015-03-20T23:00:03.503Z,38
2015-03-20T23:00:16.910Z,38
2015-03-20T23:00:30.300Z,38
2015-03-20T23:00:43.831Z,38
2015-03-20T23:00:57.271Z,38
2015-03-20T23:01:10.630Z,38
2015-03-20T23:01:24.115Z,38
2015-03-20T23:01:37.537Z,38
2015-03-20T23:01:50.974Z,38
2015-03-20T23:02:04.493Z,38
2015-03-20T23:02:17.930Z,38
2015-03-20T23:02:31.415Z,38
2015-03-20T23:02:44.852Z,38
2015-03-20T23:02:58.229Z,38
2015-03-20T23:03:11.729Z,38
2015-03-20T23:03:25.213Z,38
2015-03-20T23:03:38.651Z,39
2015-03-20T23:03:52.151Z,38
2015-03-20T23:04:05.575Z,38
2015-03-20T23:04:18.934Z,38
2015-03-20T23:04:32.387Z,39
2015-03-20T23:04:45.919Z,38
2015-03-20T23:04:59.547Z,38
2015-03-20T23:05:12.937Z,38
2015-03-20T23:05:26.422Z,38
2015-03-20T23:05:39.812Z,39
2015-03-20T23:05:53.203Z,39
2015-03-20T23:06:06.689Z,39
2015-03-20T23:06:20.095Z,39
2015-03-20T23:06:33.455Z,39
2015-03-20T23:06:46.970Z,39
2015-03-20T23:07:00.410Z,39
2015-03-20T23:07:13.754Z,39
2015-03-20T23:07:27.207Z,38
2015-03-20T23:07:40.551Z,38
2015-03-20T23:07:54.019Z,38
2015-03-20T23:08:07.397Z,38
2015-03-20T23:08:21.085Z,38
2015-03-20T23:08:38.960Z,38
2015-03-20T23:08:52.382Z,38
2015-03-20T23:09:08.790Z,38
2015-03-20T23:09:23.837Z,38
2015-03-20T23:09:38.446Z,38
2015-03-20T23:09:53.009Z,38
2015-03-20T23:10:08.136Z,38
2015-03-20T23:10:21.604Z,38
2015-03-20T23:10:37.386Z,39
2015-03-20T23:10:50.870Z,39
2015-03-20T23:11:04.544Z,38
2015-03-20T23:11:17.966Z,38
2015-03-20T23:11:31.606Z,38
2015-03-20T23:11:45.075Z,39
2015-03-20T23:11:58.528Z,38
2015-03-20T23:12:12.077Z,38
2015-03-20T23:12:25.483Z,39
2015-03-20T23:12:41.843Z,39
2015-03-20T23:12:56.030Z,40
2015-03-20T23:13:09.565Z,39
2015-03-20T23:13:22.971Z,39
2015-03-20T23:13:36.846Z,39
2015-03-20T23:13:50.283Z,39
2015-03-20T23:14:04.114Z,39
2015-03-20T23:14:17.443Z,39
2015-03-20T23:14:31.068Z,38
2015-03-20T23:14:44.536Z,39
2015-03-20T23:14:57.896Z,39
2015-03-20T23:15:11.288Z,39
2015-03-20T23:15:24.757Z,39
2015-03-20T23:15:38.476Z,39
2015-03-20T23:15:51.835Z,39
2015-03-20T23:16:05.431Z,39
2015-03-20T23:16:19.134Z,39
2015-03-20T23:16:32.618Z,39
2015-03-20T23:16:46.134Z,39
2015-03-20T23:16:59.681Z,39
2015-03-20T23:17:13.605Z,39
2015-03-20T23:17:27.074Z,39
2015-03-20T23:17:40.542Z,39
2015-03-20T23:17:53.886Z,39
2015-03-20T23:18:07.280Z,38
2015-03-20T23:18:20.764Z,39
2015-03-20T23:18:34.905Z,39
2015-03-20T23:18:48.436Z,39
2015-03-20T23:19:01.998Z,39
2015-03-20T23:19:15.408Z,39
2015-03-20T23:19:29.001Z,39
2015-03-20T23:19:42.455Z,39
2015-03-20T23:19:55.908Z,39
2015-03-20T23:20:09.471Z,39
2015-03-20T23:20:22.831Z,39
2015-03-20T23:20:36.221Z,39
2015-03-20T23:20:49.721Z,39
2015-03-20T23:21:03.112Z,39
2015-03-20T23:21:16.490Z,39
2015-03-20T23:21:32.099Z,39
2015-03-20T23:21:46.146Z,39
2015-03-20T23:21:59.662Z,39
2015-03-20T23:22:13.132Z,39
2015-03-20T23:22:26.914Z,39
2015-03-20T23:22:40.539Z,39
2015-03-20T23:22:54.492Z,40
2015-03-20T23:23:07.916Z,40
2015-03-20T23:23:21.478Z,40
2015-03-20T23:23:35.978Z,39
2015-03-20T23:23:49.447Z,39
2015-03-20T23:24:03.041Z,39
2015-03-20T23:24:17.247Z,39
2015-03-20T23:24:30.653Z,39
2015-03-20T23:24:44.497Z,39
2015-03-20T23:24:57.997Z,39
2015-03-20T23:25:12.608Z,39
2015-03-20T23:25:26.843Z,39
2015-03-20T23:25:40.889Z,39
2015-03-20T23:25:54.421Z,39
2015-03-20T23:26:07.877Z,39
2015-03-20T23:26:21.252Z,39
2015-03-20T23:26:34.705Z,39
2015-03-20T23:26:55.330Z,39
2015-03-20T23:27:08.691Z,38
2015-03-20T23:27:22.129Z,39
2015-03-20T23:27:35.582Z,39
2015-03-20T23:27:48.988Z,38
2015-03-20T23:28:02.394Z,38
2015-03-20T23:28:15.834Z,38
2015-03-20T23:28:29.271Z,38
2015-03-20T23:28:42.756Z,38
2015-03-20T23:28:56.100Z,38
2015-03-20T23:29:09.493Z,38
2015-03-20T23:29:22.993Z,38
2015-03-20T23:29:36.368Z,38
2015-03-20T23:29:49.759Z,38
2015-03-20T23:30:03.243Z,38
2015-03-20T23:30:16.667Z,38
2015-03-20T23:30:30.058Z,38
2015-03-20T23:30:43.558Z,38
2015-03-20T23:30:57.026Z,38